sensor_id;sensor_type;location;lat;lon;timestamp;P1;durP1;ratioP1;P2;durP2;ratioP2
21876;SDS011;11103;43.788;23.710;2023-01-31T00:01:23;24.93;;;11.80;;
21876;SDS011;11103;43.788;23.710;2023-01-31T00:03:54;21.13;;;10.77;;
21876;SDS011;11103;43.788;23.710;2023-01-31T00:06:22;23.30;;;11.37;;
21876;SDS011;11103;43.788;23.710;2023-01-31T00:08:48;20.07;;;12.10;;
21876;SDS011;11103;43.788;23.710;2023-01-31T00:11:15;18.07;;;10.20;;
21876;SDS011;11103;43.788;23.710;2023-01-31T00:13:42;24.53;;;12.03;;
21876;SDS011;11103;43.788;23.710;2023-01-31T00:16:08;22.23;;;11.10;;
21876;SDS011;11103;43.788;23.710;2023-01-31T00:18:35;23.87;;;12.40;;
21876;SDS011;11103;43.788;23.710;2023-01-31T00:21:10;23.83;;;11.50;;
21876;SDS011;11103;43.788;23.710;2023-01-31T00:23:37;26.53;;;12.27;;
21876;SDS011;11103;43.788;23.710;2023-01-31T00:26:07;18.27;;;10.77;;
21876;SDS011;11103;43.788;23.710;2023-01-31T00:28:33;22.40;;;11.10;;
21876;SDS011;11103;43.788;23.710;2023-01-31T00:30:58;24.00;;;11.60;;
21876;SDS011;11103;43.788;23.710;2023-01-31T00:33:24;22.40;;;11.63;;
21876;SDS011;11103;43.788;23.710;2023-01-31T00:35:49;20.53;;;11.57;;
21876;SDS011;11103;43.788;23.710;2023-01-31T00:38:14;19.33;;;11.30;;
21876;SDS011;11103;43.788;23.710;2023-01-31T00:40:40;20.03;;;10.80;;
21876;SDS011;11103;43.788;23.710;2023-01-31T00:43:05;26.00;;;11.83;;
21876;SDS011;11103;43.788;23.710;2023-01-31T00:45:31;25.10;;;12.47;;
21876;SDS011;11103;43.788;23.710;2023-01-31T00:47:56;23.73;;;11.43;;
21876;SDS011;11103;43.788;23.710;2023-01-31T00:50:22;22.83;;;12.53;;
21876;SDS011;11103;43.788;23.710;2023-01-31T00:52:47;20.93;;;10.97;;
21876;SDS011;11103;43.788;23.710;2023-01-31T00:55:13;25.07;;;12.00;;
21876;SDS011;11103;43.788;23.710;2023-01-31T00:57:38;23.17;;;11.37;;
21876;SDS011;11103;43.788;23.710;2023-01-31T01:00:04;20.40;;;11.33;;
21876;SDS011;11103;43.788;23.710;2023-01-31T01:02:29;23.33;;;11.87;;
21876;SDS011;11103;43.788;23.710;2023-01-31T01:04:55;22.97;;;12.23;;
21876;SDS011;11103;43.788;23.710;2023-01-31T01:07:20;21.07;;;11.07;;
21876;SDS011;11103;43.788;23.710;2023-01-31T01:09:46;20.80;;;11.57;;
21876;SDS011;11103;43.788;23.710;2023-01-31T01:12:11;25.17;;;12.90;;
21876;SDS011;11103;43.788;23.710;2023-01-31T01:14:36;23.90;;;12.23;;
21876;SDS011;11103;43.788;23.710;2023-01-31T01:17:02;35.83;;;15.57;;
21876;SDS011;11103;43.788;23.710;2023-01-31T01:19:27;30.27;;;14.27;;
21876;SDS011;11103;43.788;23.710;2023-01-31T01:21:53;24.47;;;11.70;;
21876;SDS011;11103;43.788;23.710;2023-01-31T01:24:19;31.20;;;14.13;;
21876;SDS011;11103;43.788;23.710;2023-01-31T01:26:45;28.23;;;12.60;;
21876;SDS011;11103;43.788;23.710;2023-01-31T01:29:11;34.97;;;15.60;;
21876;SDS011;11103;43.788;23.710;2023-01-31T01:31:37;24.80;;;12.40;;
21876;SDS011;11103;43.788;23.710;2023-01-31T01:34:07;29.87;;;13.73;;
21876;SDS011;11103;43.788;23.710;2023-01-31T01:36:36;25.17;;;11.90;;
21876;SDS011;11103;43.788;23.710;2023-01-31T01:39:03;20.17;;;10.37;;
21876;SDS011;11103;43.788;23.710;2023-01-31T01:41:30;20.73;;;10.70;;
21876;SDS011;11103;43.788;23.710;2023-01-31T01:43:57;29.23;;;14.13;;
21876;SDS011;11103;43.788;23.710;2023-01-31T01:46:25;22.83;;;12.33;;
21876;SDS011;11103;43.788;23.710;2023-01-31T01:51:39;23.97;;;12.47;;
21876;SDS011;11103;43.788;23.710;2023-01-31T01:54:08;21.27;;;10.17;;
21876;SDS011;11103;43.788;23.710;2023-01-31T01:56:42;18.83;;;10.60;;
21876;SDS011;11103;43.788;23.710;2023-01-31T01:59:13;21.00;;;10.10;;
21876;SDS011;11103;43.788;23.710;2023-01-31T02:01:44;20.53;;;11.77;;
21876;SDS011;11103;43.788;23.710;2023-01-31T02:04:13;19.50;;;10.57;;
21876;SDS011;11103;43.788;23.710;2023-01-31T02:06:42;24.07;;;11.37;;
21876;SDS011;11103;43.788;23.710;2023-01-31T02:09:13;17.23;;;10.60;;
21876;SDS011;11103;43.788;23.710;2023-01-31T02:11:44;18.90;;;9.93;;
21876;SDS011;11103;43.788;23.710;2023-01-31T02:14:10;17.47;;;10.07;;
21876;SDS011;11103;43.788;23.710;2023-01-31T02:16:36;18.73;;;9.47;;
21876;SDS011;11103;43.788;23.710;2023-01-31T02:19:02;21.80;;;10.23;;
21876;SDS011;11103;43.788;23.710;2023-01-31T02:40:53;18.87;;;10.80;;
21876;SDS011;11103;43.788;23.710;2023-01-31T02:46:48;19.73;;;10.50;;
21876;SDS011;11103;43.788;23.710;2023-01-31T02:49:36;21.53;;;11.97;;
21876;SDS011;11103;43.788;23.710;2023-01-31T02:57:56;20.63;;;11.23;;
21876;SDS011;11103;43.788;23.710;2023-01-31T03:00:24;22.73;;;12.90;;
21876;SDS011;11103;43.788;23.710;2023-01-31T03:02:51;23.00;;;11.67;;
21876;SDS011;11103;43.788;23.710;2023-01-31T03:05:17;24.63;;;11.97;;
21876;SDS011;11103;43.788;23.710;2023-01-31T03:07:49;22.70;;;12.03;;
21876;SDS011;11103;43.788;23.710;2023-01-31T03:16:28;22.37;;;12.37;;
21876;SDS011;11103;43.788;23.710;2023-01-31T03:19:27;23.80;;;12.63;;
21876;SDS011;11103;43.788;23.710;2023-01-31T03:22:01;22.77;;;12.50;;
21876;SDS011;11103;43.788;23.710;2023-01-31T03:24:31;20.67;;;12.20;;
21876;SDS011;11103;43.788;23.710;2023-01-31T03:26:58;23.27;;;13.23;;
21876;SDS011;11103;43.788;23.710;2023-01-31T03:29:27;22.40;;;12.50;;
21876;SDS011;11103;43.788;23.710;2023-01-31T03:32:05;20.97;;;11.70;;
21876;SDS011;11103;43.788;23.710;2023-01-31T03:34:36;23.83;;;11.93;;
21876;SDS011;11103;43.788;23.710;2023-01-31T03:37:11;25.20;;;11.70;;
21876;SDS011;11103;43.788;23.710;2023-01-31T03:45:08;20.87;;;11.63;;
21876;SDS011;11103;43.788;23.710;2023-01-31T03:47:40;19.23;;;11.10;;
21876;SDS011;11103;43.788;23.710;2023-01-31T03:50:09;20.77;;;11.67;;
21876;SDS011;11103;43.788;23.710;2023-01-31T03:52:42;22.23;;;11.73;;
21876;SDS011;11103;43.788;23.710;2023-01-31T03:55:20;25.57;;;12.70;;
21876;SDS011;11103;43.788;23.710;2023-01-31T03:57:52;21.97;;;12.13;;
21876;SDS011;11103;43.788;23.710;2023-01-31T04:00:20;23.63;;;12.57;;
21876;SDS011;11103;43.788;23.710;2023-01-31T04:02:49;26.03;;;12.63;;
21876;SDS011;11103;43.788;23.710;2023-01-31T04:05:22;25.47;;;11.93;;
21876;SDS011;11103;43.788;23.710;2023-01-31T04:07:54;22.43;;;12.90;;
21876;SDS011;11103;43.788;23.710;2023-01-31T04:10:21;26.40;;;13.37;;
21876;SDS011;11103;43.788;23.710;2023-01-31T04:12:47;25.07;;;12.70;;
21876;SDS011;11103;43.788;23.710;2023-01-31T04:15:12;23.47;;;13.27;;
21876;SDS011;11103;43.788;23.710;2023-01-31T04:17:38;25.60;;;13.57;;
21876;SDS011;11103;43.788;23.710;2023-01-31T04:20:04;28.20;;;13.03;;
21876;SDS011;11103;43.788;23.710;2023-01-31T04:22:31;22.80;;;13.67;;
21876;SDS011;11103;43.788;23.710;2023-01-31T04:24:56;27.97;;;14.40;;
21876;SDS011;11103;43.788;23.710;2023-01-31T04:27:22;29.97;;;14.13;;
21876;SDS011;11103;43.788;23.710;2023-01-31T04:29:47;28.87;;;14.77;;
21876;SDS011;11103;43.788;23.710;2023-01-31T04:32:13;29.23;;;14.07;;
21876;SDS011;11103;43.788;23.710;2023-01-31T04:34:38;27.80;;;13.57;;
21876;SDS011;11103;43.788;23.710;2023-01-31T04:37:04;28.97;;;14.83;;
21876;SDS011;11103;43.788;23.710;2023-01-31T04:39:29;24.00;;;13.03;;
21876;SDS011;11103;43.788;23.710;2023-01-31T04:41:54;25.80;;;13.73;;
21876;SDS011;11103;43.788;23.710;2023-01-31T04:44:20;23.50;;;12.73;;
21876;SDS011;11103;43.788;23.710;2023-01-31T04:46:45;27.13;;;14.07;;
21876;SDS011;11103;43.788;23.710;2023-01-31T04:49:11;28.33;;;14.17;;
21876;SDS011;11103;43.788;23.710;2023-01-31T04:51:37;26.90;;;13.90;;
21876;SDS011;11103;43.788;23.710;2023-01-31T04:54:03;30.67;;;16.13;;
21876;SDS011;11103;43.788;23.710;2023-01-31T04:56:28;28.07;;;14.27;;
21876;SDS011;11103;43.788;23.710;2023-01-31T04:58:55;28.87;;;14.17;;
21876;SDS011;11103;43.788;23.710;2023-01-31T05:01:21;28.10;;;14.37;;
21876;SDS011;11103;43.788;23.710;2023-01-31T05:03:47;26.47;;;14.03;;
21876;SDS011;11103;43.788;23.710;2023-01-31T05:06:12;25.47;;;14.07;;
21876;SDS011;11103;43.788;23.710;2023-01-31T05:08:38;26.13;;;14.17;;
21876;SDS011;11103;43.788;23.710;2023-01-31T05:11:03;27.23;;;14.33;;
21876;SDS011;11103;43.788;23.710;2023-01-31T05:13:32;31.77;;;14.03;;
21876;SDS011;11103;43.788;23.710;2023-01-31T05:16:03;27.70;;;15.10;;
21876;SDS011;11103;43.788;23.710;2023-01-31T05:18:33;30.23;;;14.83;;
21876;SDS011;11103;43.788;23.710;2023-01-31T05:20:59;25.87;;;14.07;;
21876;SDS011;11103;43.788;23.710;2023-01-31T05:23:26;30.00;;;15.33;;
21876;SDS011;11103;43.788;23.710;2023-01-31T05:25:51;29.07;;;15.00;;
21876;SDS011;11103;43.788;23.710;2023-01-31T05:28:17;27.50;;;15.00;;
21876;SDS011;11103;43.788;23.710;2023-01-31T05:30:42;28.90;;;14.20;;
21876;SDS011;11103;43.788;23.710;2023-01-31T05:33:08;28.80;;;13.93;;
21876;SDS011;11103;43.788;23.710;2023-01-31T05:35:33;30.30;;;15.33;;
21876;SDS011;11103;43.788;23.710;2023-01-31T05:37:59;34.90;;;16.40;;
21876;SDS011;11103;43.788;23.710;2023-01-31T05:40:24;27.90;;;15.50;;
21876;SDS011;11103;43.788;23.710;2023-01-31T05:42:53;30.23;;;16.57;;
21876;SDS011;11103;43.788;23.710;2023-01-31T05:45:24;40.17;;;18.80;;
21876;SDS011;11103;43.788;23.710;2023-01-31T05:47:50;34.47;;;17.30;;
21876;SDS011;11103;43.788;23.710;2023-01-31T05:50:16;35.53;;;17.87;;
21876;SDS011;11103;43.788;23.710;2023-01-31T05:52:42;70.90;;;28.63;;
21876;SDS011;11103;43.788;23.710;2023-01-31T05:55:07;70.23;;;27.53;;
21876;SDS011;11103;43.788;23.710;2023-01-31T05:57:33;59.70;;;25.53;;
21876;SDS011;11103;43.788;23.710;2023-01-31T05:59:58;59.80;;;24.20;;
21876;SDS011;11103;43.788;23.710;2023-01-31T06:02:24;71.37;;;26.27;;
21876;SDS011;11103;43.788;23.710;2023-01-31T06:04:50;49.20;;;20.43;;
21876;SDS011;11103;43.788;23.710;2023-01-31T06:07:15;41.77;;;18.83;;
21876;SDS011;11103;43.788;23.710;2023-01-31T06:09:41;44.07;;;19.87;;
21876;SDS011;11103;43.788;23.710;2023-01-31T06:12:10;30.27;;;16.43;;
21876;SDS011;11103;43.788;23.710;2023-01-31T06:14:37;28.23;;;14.63;;
21876;SDS011;11103;43.788;23.710;2023-01-31T06:17:02;28.33;;;16.17;;
21876;SDS011;11103;43.788;23.710;2023-01-31T06:19:28;25.70;;;13.27;;
21876;SDS011;11103;43.788;23.710;2023-01-31T06:21:53;32.37;;;15.27;;
21876;SDS011;11103;43.788;23.710;2023-01-31T06:24:19;25.83;;;13.60;;
21876;SDS011;11103;43.788;23.710;2023-01-31T06:26:45;26.03;;;14.50;;
21876;SDS011;11103;43.788;23.710;2023-01-31T06:29:10;28.33;;;14.30;;
21876;SDS011;11103;43.788;23.710;2023-01-31T06:31:36;24.33;;;13.37;;
21876;SDS011;11103;43.788;23.710;2023-01-31T06:34:01;24.50;;;13.03;;
21876;SDS011;11103;43.788;23.710;2023-01-31T06:36:27;29.00;;;14.83;;
21876;SDS011;11103;43.788;23.710;2023-01-31T06:38:55;24.50;;;12.87;;
21876;SDS011;11103;43.788;23.710;2023-01-31T06:41:20;22.27;;;13.13;;
21876;SDS011;11103;43.788;23.710;2023-01-31T06:43:46;23.43;;;12.30;;
21876;SDS011;11103;43.788;23.710;2023-01-31T06:46:11;23.20;;;13.73;;
21876;SDS011;11103;43.788;23.710;2023-01-31T06:48:37;20.30;;;12.17;;
21876;SDS011;11103;43.788;23.710;2023-01-31T06:51:02;22.33;;;12.60;;
21876;SDS011;11103;43.788;23.710;2023-01-31T06:53:28;23.30;;;12.90;;
21876;SDS011;11103;43.788;23.710;2023-01-31T06:55:53;18.97;;;12.17;;
21876;SDS011;11103;43.788;23.710;2023-01-31T06:58:18;20.27;;;12.10;;
21876;SDS011;11103;43.788;23.710;2023-01-31T07:00:44;24.17;;;11.97;;
21876;SDS011;11103;43.788;23.710;2023-01-31T07:03:09;20.20;;;11.17;;
21876;SDS011;11103;43.788;23.710;2023-01-31T07:05:35;21.03;;;11.57;;
21876;SDS011;11103;43.788;23.710;2023-01-31T07:08:00;19.87;;;10.87;;
21876;SDS011;11103;43.788;23.710;2023-01-31T07:10:25;20.10;;;12.07;;
21876;SDS011;11103;43.788;23.710;2023-01-31T07:12:51;18.73;;;11.90;;
21876;SDS011;11103;43.788;23.710;2023-01-31T07:15:16;29.40;;;16.67;;
21876;SDS011;11103;43.788;23.710;2023-01-31T07:17:42;25.60;;;14.03;;
21876;SDS011;11103;43.788;23.710;2023-01-31T07:20:08;23.50;;;12.97;;
21876;SDS011;11103;43.788;23.710;2023-01-31T07:22:34;19.00;;;11.57;;
21876;SDS011;11103;43.788;23.710;2023-01-31T07:25:00;23.87;;;12.40;;
21876;SDS011;11103;43.788;23.710;2023-01-31T07:27:25;17.73;;;11.20;;
21876;SDS011;11103;43.788;23.710;2023-01-31T07:29:51;22.00;;;13.00;;
21876;SDS011;11103;43.788;23.710;2023-01-31T07:32:16;22.60;;;12.40;;
21876;SDS011;11103;43.788;23.710;2023-01-31T07:34:42;19.90;;;10.90;;
21876;SDS011;11103;43.788;23.710;2023-01-31T07:37:07;21.20;;;11.23;;
21876;SDS011;11103;43.788;23.710;2023-01-31T07:39:33;19.80;;;11.23;;
21876;SDS011;11103;43.788;23.710;2023-01-31T07:41:58;18.00;;;10.40;;
21876;SDS011;11103;43.788;23.710;2023-01-31T07:44:24;25.20;;;12.63;;
21876;SDS011;11103;43.788;23.710;2023-01-31T07:46:49;21.33;;;11.03;;
21876;SDS011;11103;43.788;23.710;2023-01-31T07:49:16;20.97;;;11.60;;
21876;SDS011;11103;43.788;23.710;2023-01-31T07:51:41;20.80;;;11.13;;
21876;SDS011;11103;43.788;23.710;2023-01-31T07:54:08;19.03;;;11.60;;
21876;SDS011;11103;43.788;23.710;2023-01-31T07:56:35;22.20;;;10.40;;
21876;SDS011;11103;43.788;23.710;2023-01-31T07:59:00;17.73;;;11.10;;
21876;SDS011;11103;43.788;23.710;2023-01-31T08:01:26;14.43;;;9.60;;
21876;SDS011;11103;43.788;23.710;2023-01-31T08:04:11;17.67;;;10.37;;
21876;SDS011;11103;43.788;23.710;2023-01-31T08:06:39;45.17;;;20.87;;
21876;SDS011;11103;43.788;23.710;2023-01-31T08:09:05;35.43;;;16.80;;
21876;SDS011;11103;43.788;23.710;2023-01-31T08:11:31;32.53;;;13.70;;
21876;SDS011;11103;43.788;23.710;2023-01-31T08:13:56;20.87;;;11.47;;
21876;SDS011;11103;43.788;23.710;2023-01-31T08:16:22;27.77;;;12.37;;
21876;SDS011;11103;43.788;23.710;2023-01-31T08:18:47;25.03;;;11.83;;
21876;SDS011;11103;43.788;23.710;2023-01-31T08:21:14;24.27;;;12.67;;
21876;SDS011;11103;43.788;23.710;2023-01-31T08:23:40;31.20;;;14.53;;
21876;SDS011;11103;43.788;23.710;2023-01-31T08:26:07;25.53;;;11.50;;
21876;SDS011;11103;43.788;23.710;2023-01-31T08:28:36;17.33;;;10.50;;
21876;SDS011;11103;43.788;23.710;2023-01-31T08:31:03;22.13;;;12.23;;
21876;SDS011;11103;43.788;23.710;2023-01-31T08:33:29;24.53;;;13.73;;
21876;SDS011;11103;43.788;23.710;2023-01-31T08:35:54;17.47;;;11.63;;
21876;SDS011;11103;43.788;23.710;2023-01-31T08:38:20;16.53;;;10.70;;
21876;SDS011;11103;43.788;23.710;2023-01-31T08:40:45;17.03;;;10.63;;
21876;SDS011;11103;43.788;23.710;2023-01-31T08:43:11;17.17;;;11.10;;
21876;SDS011;11103;43.788;23.710;2023-01-31T08:45:36;16.37;;;10.07;;
21876;SDS011;11103;43.788;23.710;2023-01-31T08:48:02;17.63;;;10.40;;
21876;SDS011;11103;43.788;23.710;2023-01-31T08:50:29;19.23;;;12.07;;
21876;SDS011;11103;43.788;23.710;2023-01-31T08:52:56;13.47;;;9.17;;
21876;SDS011;11103;43.788;23.710;2023-01-31T08:55:23;16.27;;;10.30;;
21876;SDS011;11103;43.788;23.710;2023-01-31T08:57:50;14.87;;;9.53;;
21876;SDS011;11103;43.788;23.710;2023-01-31T09:00:16;16.57;;;10.27;;
21876;SDS011;11103;43.788;23.710;2023-01-31T09:02:42;14.27;;;8.73;;
21876;SDS011;11103;43.788;23.710;2023-01-31T09:05:10;15.73;;;9.70;;
21876;SDS011;11103;43.788;23.710;2023-01-31T09:07:36;13.20;;;8.67;;
21876;SDS011;11103;43.788;23.710;2023-01-31T09:10:02;15.03;;;9.63;;
21876;SDS011;11103;43.788;23.710;2023-01-31T09:12:27;16.00;;;9.40;;
21876;SDS011;11103;43.788;23.710;2023-01-31T09:14:53;14.47;;;8.83;;
21876;SDS011;11103;43.788;23.710;2023-01-31T09:17:18;14.73;;;8.97;;
21876;SDS011;11103;43.788;23.710;2023-01-31T09:19:44;14.00;;;9.13;;
21876;SDS011;11103;43.788;23.710;2023-01-31T09:22:09;13.13;;;9.20;;
21876;SDS011;11103;43.788;23.710;2023-01-31T09:24:35;12.67;;;8.40;;
21876;SDS011;11103;43.788;23.710;2023-01-31T09:27:00;16.90;;;8.70;;
21876;SDS011;11103;43.788;23.710;2023-01-31T09:29:26;15.03;;;9.17;;
21876;SDS011;11103;43.788;23.710;2023-01-31T09:31:52;13.97;;;8.43;;
21876;SDS011;11103;43.788;23.710;2023-01-31T09:34:18;18.60;;;9.17;;
21876;SDS011;11103;43.788;23.710;2023-01-31T09:36:44;18.03;;;10.07;;
21876;SDS011;11103;43.788;23.710;2023-01-31T09:39:10;13.87;;;8.53;;
21876;SDS011;11103;43.788;23.710;2023-01-31T09:44:24;14.20;;;8.70;;
21876;SDS011;11103;43.788;23.710;2023-01-31T09:47:12;13.10;;;8.13;;
21876;SDS011;11103;43.788;23.710;2023-01-31T09:49:46;13.03;;;8.47;;
21876;SDS011;11103;43.788;23.710;2023-01-31T09:52:15;16.57;;;9.47;;
21876;SDS011;11103;43.788;23.710;2023-01-31T09:54:41;13.30;;;8.63;;
21876;SDS011;11103;43.788;23.710;2023-01-31T10:05:38;12.87;;;8.20;;
21876;SDS011;11103;43.788;23.710;2023-01-31T10:11:15;14.57;;;8.10;;
21876;SDS011;11103;43.788;23.710;2023-01-31T10:13:50;14.80;;;7.27;;
21876;SDS011;11103;43.788;23.710;2023-01-31T10:16:32;8.33;;;6.47;;
21876;SDS011;11103;43.788;23.710;2023-01-31T10:19:10;11.83;;;7.27;;
21876;SDS011;11103;43.788;23.710;2023-01-31T10:21:41;11.67;;;7.47;;
21876;SDS011;11103;43.788;23.710;2023-01-31T10:24:14;12.57;;;8.53;;
21876;SDS011;11103;43.788;23.710;2023-01-31T10:26:47;12.30;;;8.10;;
21876;SDS011;11103;43.788;23.710;2023-01-31T10:31:48;12.43;;;7.77;;
21876;SDS011;11103;43.788;23.710;2023-01-31T10:34:26;13.90;;;7.90;;
21876;SDS011;11103;43.788;23.710;2023-01-31T10:36:57;13.33;;;8.40;;
21876;SDS011;11103;43.788;23.710;2023-01-31T10:39:27;15.67;;;8.83;;
21876;SDS011;11103;43.788;23.710;2023-01-31T10:44:53;9.20;;;6.23;;
21876;SDS011;11103;43.788;23.710;2023-01-31T10:47:32;13.07;;;8.43;;
21876;SDS011;11103;43.788;23.710;2023-01-31T10:50:00;17.17;;;10.43;;
21876;SDS011;11103;43.788;23.710;2023-01-31T10:57:57;11.73;;;7.87;;
21876;SDS011;11103;43.788;23.710;2023-01-31T11:00:25;11.60;;;7.87;;
21876;SDS011;11103;43.788;23.710;2023-01-31T11:02:54;10.90;;;7.80;;
21876;SDS011;11103;43.788;23.710;2023-01-31T11:05:22;12.07;;;7.43;;
21876;SDS011;11103;43.788;23.710;2023-01-31T11:07:51;10.67;;;7.57;;
21876;SDS011;11103;43.788;23.710;2023-01-31T11:10:30;13.70;;;8.17;;
21876;SDS011;11103;43.788;23.710;2023-01-31T11:12:57;12.37;;;7.33;;
21876;SDS011;11103;43.788;23.710;2023-01-31T11:15:34;11.60;;;7.80;;
21876;SDS011;11103;43.788;23.710;2023-01-31T11:18:02;11.87;;;7.27;;
21876;SDS011;11103;43.788;23.710;2023-01-31T11:20:29;21.87;;;11.63;;
21876;SDS011;11103;43.788;23.710;2023-01-31T11:22:56;13.33;;;7.27;;
21876;SDS011;11103;43.788;23.710;2023-01-31T11:25:24;10.47;;;7.27;;
21876;SDS011;11103;43.788;23.710;2023-01-31T11:27:52;11.07;;;7.20;;
21876;SDS011;11103;43.788;23.710;2023-01-31T11:30:24;10.83;;;6.67;;
21876;SDS011;11103;43.788;23.710;2023-01-31T11:32:53;7.57;;;5.47;;
21876;SDS011;11103;43.788;23.710;2023-01-31T11:37:49;12.23;;;8.43;;
21876;SDS011;11103;43.788;23.710;2023-01-31T11:40:18;34.30;;;17.17;;
21876;SDS011;11103;43.788;23.710;2023-01-31T11:42:54;15.93;;;9.73;;
21876;SDS011;11103;43.788;23.710;2023-01-31T11:45:24;16.70;;;5.97;;
21876;SDS011;11103;43.788;23.710;2023-01-31T11:47:56;10.70;;;6.57;;
21876;SDS011;11103;43.788;23.710;2023-01-31T11:53:01;7.57;;;5.60;;
21876;SDS011;11103;43.788;23.710;2023-01-31T11:55:37;6.33;;;5.10;;
21876;SDS011;11103;43.788;23.710;2023-01-31T11:58:09;6.83;;;4.70;;
21876;SDS011;11103;43.788;23.710;2023-01-31T12:03:29;7.67;;;4.87;;
21876;SDS011;11103;43.788;23.710;2023-01-31T12:05:59;7.57;;;4.80;;
21876;SDS011;11103;43.788;23.710;2023-01-31T12:08:34;8.50;;;6.13;;
21876;SDS011;11103;43.788;23.710;2023-01-31T12:11:04;5.83;;;4.83;;
21876;SDS011;11103;43.788;23.710;2023-01-31T12:13:49;6.97;;;5.10;;
21876;SDS011;11103;43.788;23.710;2023-01-31T12:16:19;7.93;;;5.30;;
21876;SDS011;11103;43.788;23.710;2023-01-31T12:38:37;7.13;;;5.00;;
21876;SDS011;11103;43.788;23.710;2023-01-31T12:49:36;9.80;;;5.73;;
21876;SDS011;11103;43.788;23.710;2023-01-31T12:55:00;13.53;;;6.77;;
21876;SDS011;11103;43.788;23.710;2023-01-31T13:03:21;5.60;;;4.00;;
21876;SDS011;11103;43.788;23.710;2023-01-31T13:08:30;6.23;;;5.13;;
21876;SDS011;11103;43.788;23.710;2023-01-31T13:11:08;5.70;;;4.37;;
21876;SDS011;11103;43.788;23.710;2023-01-31T13:18:42;6.07;;;4.23;;
21876;SDS011;11103;43.788;23.710;2023-01-31T13:21:12;5.03;;;4.47;;
21876;SDS011;11103;43.788;23.710;2023-01-31T13:23:42;5.80;;;4.10;;
21876;SDS011;11103;43.788;23.710;2023-01-31T13:29:04;5.13;;;4.33;;
21876;SDS011;11103;43.788;23.710;2023-01-31T13:31:39;4.83;;;4.33;;
21876;SDS011;11103;43.788;23.710;2023-01-31T13:34:11;6.03;;;4.30;;
21876;SDS011;11103;43.788;23.710;2023-01-31T13:39:17;4.40;;;3.93;;
21876;SDS011;11103;43.788;23.710;2023-01-31T13:41:45;5.10;;;3.97;;
21876;SDS011;11103;43.788;23.710;2023-01-31T13:44:11;6.33;;;4.90;;
21876;SDS011;11103;43.788;23.710;2023-01-31T13:49:40;7.27;;;4.23;;
21876;SDS011;11103;43.788;23.710;2023-01-31T13:54:49;6.57;;;4.90;;
21876;SDS011;11103;43.788;23.710;2023-01-31T13:57:23;7.77;;;4.77;;
21876;SDS011;11103;43.788;23.710;2023-01-31T14:00:09;5.77;;;4.30;;
21876;SDS011;11103;43.788;23.710;2023-01-31T14:02:58;5.60;;;4.33;;
21876;SDS011;11103;43.788;23.710;2023-01-31T14:13:50;7.87;;;5.43;;
21876;SDS011;11103;43.788;23.710;2023-01-31T14:17:55;8.07;;;6.00;;
21876;SDS011;11103;43.788;23.710;2023-01-31T14:23:29;6.17;;;4.83;;
21876;SDS011;11103;43.788;23.710;2023-01-31T14:25:49;7.87;;;6.07;;
21876;SDS011;11103;43.788;23.710;2023-01-31T14:28:14;8.20;;;5.20;;
21876;SDS011;11103;43.788;23.710;2023-01-31T14:30:42;9.40;;;5.20;;
21876;SDS011;11103;43.788;23.710;2023-01-31T14:35:43;7.97;;;5.60;;
21876;SDS011;11103;43.788;23.710;2023-01-31T14:43:44;10.33;;;5.53;;
21876;SDS011;11103;43.788;23.710;2023-01-31T14:46:38;8.47;;;5.07;;
21876;SDS011;11103;43.788;23.710;2023-01-31T14:59:57;15.90;;;9.07;;
21876;SDS011;11103;43.788;23.710;2023-01-31T15:05:16;70.70;;;32.53;;
21876;SDS011;11103;43.788;23.710;2023-01-31T15:10:54;17.17;;;10.37;;
21876;SDS011;11103;43.788;23.710;2023-01-31T15:18:52;10.27;;;6.07;;
21876;SDS011;11103;43.788;23.710;2023-01-31T15:21:24;31.93;;;16.53;;
21876;SDS011;11103;43.788;23.710;2023-01-31T15:23:53;51.97;;;24.13;;
21876;SDS011;11103;43.788;23.710;2023-01-31T15:26:19;17.10;;;11.30;;
21876;SDS011;11103;43.788;23.710;2023-01-31T15:28:46;11.43;;;8.80;;
21876;SDS011;11103;43.788;23.710;2023-01-31T15:31:19;12.83;;;9.43;;
21876;SDS011;11103;43.788;23.710;2023-01-31T15:33:50;15.87;;;8.93;;
21876;SDS011;11103;43.788;23.710;2023-01-31T15:36:19;11.87;;;6.70;;
21876;SDS011;11103;43.788;23.710;2023-01-31T15:38:52;11.50;;;6.20;;
21876;SDS011;11103;43.788;23.710;2023-01-31T15:41:40;13.00;;;7.27;;
21876;SDS011;11103;43.788;23.710;2023-01-31T15:44:23;17.63;;;7.23;;
21876;SDS011;11103;43.788;23.710;2023-01-31T15:46:54;10.10;;;6.13;;
21876;SDS011;11103;43.788;23.710;2023-01-31T15:49:26;9.33;;;5.43;;
21876;SDS011;11103;43.788;23.710;2023-01-31T15:52:03;21.13;;;12.40;;
21876;SDS011;11103;43.788;23.710;2023-01-31T15:54:29;9.00;;;5.70;;
21876;SDS011;11103;43.788;23.710;2023-01-31T15:56:54;10.20;;;6.70;;
21876;SDS011;11103;43.788;23.710;2023-01-31T15:59:25;9.07;;;6.47;;
21876;SDS011;11103;43.788;23.710;2023-01-31T16:01:54;54.53;;;19.10;;
21876;SDS011;11103;43.788;23.710;2023-01-31T16:04:26;7.83;;;5.00;;
21876;SDS011;11103;43.788;23.710;2023-01-31T16:06:52;10.60;;;5.60;;
21876;SDS011;11103;43.788;23.710;2023-01-31T16:09:30;6.27;;;4.77;;
21876;SDS011;11103;43.788;23.710;2023-01-31T16:11:57;6.77;;;5.17;;
21876;SDS011;11103;43.788;23.710;2023-01-31T16:14:24;7.03;;;4.77;;
21876;SDS011;11103;43.788;23.710;2023-01-31T16:16:53;6.37;;;4.67;;
21876;SDS011;11103;43.788;23.710;2023-01-31T16:19:25;7.23;;;4.47;;
21876;SDS011;11103;43.788;23.710;2023-01-31T16:21:53;6.17;;;4.33;;
21876;SDS011;11103;43.788;23.710;2023-01-31T16:24:20;6.47;;;4.93;;
21876;SDS011;11103;43.788;23.710;2023-01-31T16:29:31;7.87;;;4.73;;
21876;SDS011;11103;43.788;23.710;2023-01-31T16:32:09;5.77;;;4.47;;
21876;SDS011;11103;43.788;23.710;2023-01-31T16:35:00;9.77;;;5.40;;
21876;SDS011;11103;43.788;23.710;2023-01-31T16:40:01;25.80;;;10.43;;
21876;SDS011;11103;43.788;23.710;2023-01-31T16:42:30;15.47;;;8.67;;
21876;SDS011;11103;43.788;23.710;2023-01-31T16:44:59;12.63;;;6.57;;
21876;SDS011;11103;43.788;23.710;2023-01-31T16:52:44;8.87;;;6.10;;
21876;SDS011;11103;43.788;23.710;2023-01-31T16:55:12;7.10;;;5.70;;
21876;SDS011;11103;43.788;23.710;2023-01-31T16:57:39;12.93;;;7.90;;
21876;SDS011;11103;43.788;23.710;2023-01-31T17:00:06;7.03;;;5.20;;
21876;SDS011;11103;43.788;23.710;2023-01-31T17:02:53;7.57;;;5.70;;
21876;SDS011;11103;43.788;23.710;2023-01-31T17:05:21;7.63;;;4.80;;
21876;SDS011;11103;43.788;23.710;2023-01-31T17:07:49;6.17;;;5.23;;
21876;SDS011;11103;43.788;23.710;2023-01-31T17:10:21;6.97;;;4.70;;
21876;SDS011;11103;43.788;23.710;2023-01-31T17:12:51;6.73;;;5.17;;
21876;SDS011;11103;43.788;23.710;2023-01-31T17:15:21;7.53;;;5.23;;
21876;SDS011;11103;43.788;23.710;2023-01-31T17:17:46;8.53;;;6.23;;
21876;SDS011;11103;43.788;23.710;2023-01-31T17:20:12;7.80;;;5.33;;
21876;SDS011;11103;43.788;23.710;2023-01-31T17:22:42;7.77;;;4.67;;
21876;SDS011;11103;43.788;23.710;2023-01-31T17:25:18;6.00;;;5.37;;
21876;SDS011;11103;43.788;23.710;2023-01-31T17:27:44;9.23;;;5.93;;
21876;SDS011;11103;43.788;23.710;2023-01-31T17:30:10;9.40;;;5.03;;